sensor_id;sensor_type;location;lat;lon;timestamp;noise_LAeq;noise_LA_min;noise_LA_max;noise_LA01;noise_LA95
18377;Laerm;9315;52.624;13.544;2024-03-06T00:01:10;34.03;31.40;38.43;;
18377;Laerm;9315;52.624;13.544;2024-03-06T00:03:38;61.32;31.98;78.48;;
18377;Laerm;9315;52.624;13.544;2024-03-06T00:06:05;35.42;33.10;39.05;;
18377;Laerm;9315;52.624;13.544;2024-03-06T00:08:33;51.17;31.00;66.63;;
18377;Laerm;9315;52.624;13.544;2024-03-06T00:11:01;34.22;30.51;39.16;;
18377;Laerm;9315;52.624;13.544;2024-03-06T00:13:30;37.20;30.27;51.49;;
18377;Laerm;9315;52.624;13.544;2024-03-06T00:15:57;51.04;32.06;68.18;;
18377;Laerm;9315;52.624;13.544;2024-03-06T00:18:25;37.84;30.88;45.76;;
18377;Laerm;9315;52.624;13.544;2024-03-06T00:20:52;34.72;30.66;39.59;;
18377;Laerm;9315;52.624;13.544;2024-03-06T00:23:19;33.83;30.21;37.47;;
18377;Laerm;9315;52.624;13.544;2024-03-06T00:25:47;55.08;30.86;72.67;;
18377;Laerm;9315;52.624;13.544;2024-03-06T00:28:15;35.50;31.90;41.17;;
18377;Laerm;9315;52.624;13.544;2024-03-06T00:30:42;55.39;33.20;73.82;;
18377;Laerm;9315;52.624;13.544;2024-03-06T00:33:09;57.85;31.95;77.78;;
18377;Laerm;9315;52.624;13.544;2024-03-06T00:35:37;58.31;31.08;73.25;;
18377;Laerm;9315;52.624;13.544;2024-03-06T00:38:04;53.13;29.96;68.94;;
18377;Laerm;9315;52.624;13.544;2024-03-06T00:40:33;33.73;30.05;39.30;;
18377;Laerm;9315;52.624;13.544;2024-03-06T00:43:01;35.02;31.76;40.56;;
18377;Laerm;9315;52.624;13.544;2024-03-06T00:45:28;54.90;30.53;76.15;;
18377;Laerm;9315;52.624;13.544;2024-03-06T00:47:57;58.99;31.36;74.42;;
18377;Laerm;9315;52.624;13.544;2024-03-06T00:50:24;32.51;29.95;35.57;;
18377;Laerm;9315;52.624;13.544;2024-03-06T00:52:52;54.69;30.16;74.23;;
18377;Laerm;9315;52.624;13.544;2024-03-06T00:55:19;58.70;33.39;75.09;;
18377;Laerm;9315;52.624;13.544;2024-03-06T00:57:46;34.88;31.07;42.81;;
18377;Laerm;9315;52.624;13.544;2024-03-06T01:00:15;37.45;32.78;44.71;;
18377;Laerm;9315;52.624;13.544;2024-03-06T01:02:43;59.29;31.59;75.86;;
18377;Laerm;9315;52.624;13.544;2024-03-06T01:05:10;54.23;33.83;74.32;;
18377;Laerm;9315;52.624;13.544;2024-03-06T01:07:38;37.26;32.39;40.93;;
18377;Laerm;9315;52.624;13.544;2024-03-06T01:10:07;34.75;31.78;39.69;;
18377;Laerm;9315;52.624;13.544;2024-03-06T01:12:35;59.65;33.45;75.74;;
18377;Laerm;9315;52.624;13.544;2024-03-06T01:15:05;51.62;32.40;64.92;;
18377;Laerm;9315;52.624;13.544;2024-03-06T01:17:35;33.92;30.91;39.71;;
18377;Laerm;9315;52.624;13.544;2024-03-06T01:20:03;51.84;32.18;69.25;;
18377;Laerm;9315;52.624;13.544;2024-03-06T01:22:34;33.76;30.54;40.69;;
18377;Laerm;9315;52.624;13.544;2024-03-06T01:25:03;54.68;31.14;72.83;;
18377;Laerm;9315;52.624;13.544;2024-03-06T01:27:32;54.25;32.37;68.94;;
18377;Laerm;9315;52.624;13.544;2024-03-06T01:29:59;53.82;31.26;71.34;;
18377;Laerm;9315;52.624;13.544;2024-03-06T01:32:26;55.39;31.12;74.63;;
18377;Laerm;9315;52.624;13.544;2024-03-06T01:34:54;34.85;31.06;40.21;;
18377;Laerm;9315;52.624;13.544;2024-03-06T01:37:21;33.91;30.67;40.43;;
18377;Laerm;9315;52.624;13.544;2024-03-06T01:39:49;57.26;31.78;75.27;;
18377;Laerm;9315;52.624;13.544;2024-03-06T01:42:17;33.95;30.39;38.98;;
18377;Laerm;9315;52.624;13.544;2024-03-06T01:44:45;32.61;30.25;35.65;;
18377;Laerm;9315;52.624;13.544;2024-03-06T01:47:13;33.83;30.60;38.77;;
18377;Laerm;9315;52.624;13.544;2024-03-06T01:49:41;35.12;32.03;38.64;;
18377;Laerm;9315;52.624;13.544;2024-03-06T01:52:14;35.78;31.96;43.48;;
18377;Laerm;9315;52.624;13.544;2024-03-06T01:54:44;58.42;32.48;75.23;;
18377;Laerm;9315;52.624;13.544;2024-03-06T01:57:14;37.31;33.03;43.84;;
18377;Laerm;9315;52.624;13.544;2024-03-06T01:59:43;37.49;31.59;47.57;;
18377;Laerm;9315;52.624;13.544;2024-03-06T02:02:11;55.43;32.71;71.87;;
18377;Laerm;9315;52.624;13.544;2024-03-06T02:04:38;34.72;32.28;38.12;;
18377;Laerm;9315;52.624;13.544;2024-03-06T02:07:10;58.06;33.19;74.56;;
18377;Laerm;9315;52.624;13.544;2024-03-06T02:09:40;37.21;32.10;50.82;;
18377;Laerm;9315;52.624;13.544;2024-03-06T02:12:08;50.34;33.31;66.99;;
18377;Laerm;9315;52.624;13.544;2024-03-06T02:14:36;40.59;34.33;46.99;;
18377;Laerm;9315;52.624;13.544;2024-03-06T02:17:04;56.31;34.19;75.12;;
18377;Laerm;9315;52.624;13.544;2024-03-06T02:19:43;60.36;33.54;74.79;;
18377;Laerm;9315;52.624;13.544;2024-03-06T02:22:11;52.85;32.86;68.79;;
18377;Laerm;9315;52.624;13.544;2024-03-06T02:24:44;58.66;34.09;72.07;;
18377;Laerm;9315;52.624;13.544;2024-03-06T02:27:13;35.26;31.76;40.26;;
18377;Laerm;9315;52.624;13.544;2024-03-06T02:29:40;54.24;34.19;69.85;;
18377;Laerm;9315;52.624;13.544;2024-03-06T02:32:08;61.18;35.77;77.52;;
18377;Laerm;9315;52.624;13.544;2024-03-06T02:34:35;60.35;36.10;75.97;;
18377;Laerm;9315;52.624;13.544;2024-03-06T02:37:03;60.53;34.51;75.76;;
18377;Laerm;9315;52.624;13.544;2024-03-06T02:39:30;53.34;37.93;69.73;;
18377;Laerm;9315;52.624;13.544;2024-03-06T02:41:58;56.55;34.82;69.51;;
18377;Laerm;9315;52.624;13.544;2024-03-06T02:44:25;59.99;33.06;79.96;;
18377;Laerm;9315;52.624;13.544;2024-03-06T02:46:53;58.61;35.39;75.02;;
18377;Laerm;9315;52.624;13.544;2024-03-06T02:49:20;54.34;33.83;69.53;;
18377;Laerm;9315;52.624;13.544;2024-03-06T02:51:48;56.00;35.03;74.75;;
18377;Laerm;9315;52.624;13.544;2024-03-06T02:54:15;59.95;34.65;76.58;;
18377;Laerm;9315;52.624;13.544;2024-03-06T02:56:43;59.64;35.23;75.70;;
18377;Laerm;9315;52.624;13.544;2024-03-06T02:59:10;60.95;34.63;73.98;;
18377;Laerm;9315;52.624;13.544;2024-03-06T03:01:38;57.58;36.16;73.60;;
18377;Laerm;9315;52.624;13.544;2024-03-06T03:04:06;59.67;36.60;73.93;;
18377;Laerm;9315;52.624;13.544;2024-03-06T03:06:34;59.83;36.07;77.64;;
18377;Laerm;9315;52.624;13.544;2024-03-06T03:09:02;52.93;35.63;68.39;;
18377;Laerm;9315;52.624;13.544;2024-03-06T03:11:31;58.16;35.97;73.63;;
18377;Laerm;9315;52.624;13.544;2024-03-06T03:13:59;54.84;34.08;70.75;;
18377;Laerm;9315;52.624;13.544;2024-03-06T03:16:27;39.77;35.62;48.01;;
18377;Laerm;9315;52.624;13.544;2024-03-06T03:18:54;63.37;35.04;74.53;;
18377;Laerm;9315;52.624;13.544;2024-03-06T03:21:22;54.67;35.82;69.46;;
18377;Laerm;9315;52.624;13.544;2024-03-06T03:23:49;62.12;36.58;74.24;;
18377;Laerm;9315;52.624;13.544;2024-03-06T03:26:17;64.36;35.75;77.97;;
18377;Laerm;9315;52.624;13.544;2024-03-06T03:28:44;61.41;38.15;74.90;;
18377;Laerm;9315;52.624;13.544;2024-03-06T03:31:12;65.25;38.45;78.31;;
18377;Laerm;9315;52.624;13.544;2024-03-06T03:33:40;60.19;37.69;73.34;;
18377;Laerm;9315;52.624;13.544;2024-03-06T03:36:09;64.62;40.13;74.79;;
18377;Laerm;9315;52.624;13.544;2024-03-06T03:38:39;60.54;38.22;74.51;;
18377;Laerm;9315;52.624;13.544;2024-03-06T03:41:10;61.53;37.82;74.87;;
18377;Laerm;9315;52.624;13.544;2024-03-06T03:43:41;66.08;41.68;77.73;;
18377;Laerm;9315;52.624;13.544;2024-03-06T03:46:09;62.02;39.48;74.63;;
18377;Laerm;9315;52.624;13.544;2024-03-06T03:48:37;60.05;39.51;76.96;;
18377;Laerm;9315;52.624;13.544;2024-03-06T03:51:06;63.87;41.09;77.85;;
18377;Laerm;9315;52.624;13.544;2024-03-06T03:53:35;65.18;40.42;80.36;;
18377;Laerm;9315;52.624;13.544;2024-03-06T03:56:03;65.52;41.53;77.83;;
18377;Laerm;9315;52.624;13.544;2024-03-06T03:58:31;65.33;42.74;78.15;;
18377;Laerm;9315;52.624;13.544;2024-03-06T04:00:59;65.17;43.94;75.10;;
18377;Laerm;9315;52.624;13.544;2024-03-06T04:03:27;66.16;42.97;74.48;;
18377;Laerm;9315;52.624;13.544;2024-03-06T04:05:54;66.01;45.12;77.18;;
18377;Laerm;9315;52.624;13.544;2024-03-06T04:08:22;66.23;43.45;74.47;;
18377;Laerm;9315;52.624;13.544;2024-03-06T04:10:50;64.75;45.35;72.74;;
18377;Laerm;9315;52.624;13.544;2024-03-06T04:13:18;66.80;43.74;76.52;;
18377;Laerm;9315;52.624;13.544;2024-03-06T04:15:47;67.70;47.03;77.19;;
18377;Laerm;9315;52.624;13.544;2024-03-06T04:18:15;61.85;42.86;73.64;;
18377;Laerm;9315;52.624;13.544;2024-03-06T04:20:42;65.03;44.61;76.00;;
18377;Laerm;9315;52.624;13.544;2024-03-06T04:23:10;66.22;44.86;76.66;;
18377;Laerm;9315;52.624;13.544;2024-03-06T04:25:38;66.65;45.84;77.33;;
18377;Laerm;9315;52.624;13.544;2024-03-06T04:28:09;67.15;43.87;77.50;;
18377;Laerm;9315;52.624;13.544;2024-03-06T04:30:36;64.65;43.48;76.91;;
18377;Laerm;9315;52.624;13.544;2024-03-06T04:33:04;67.47;46.19;77.43;;
18377;Laerm;9315;52.624;13.544;2024-03-06T04:35:32;68.89;46.81;79.74;;
18377;Laerm;9315;52.624;13.544;2024-03-06T04:38:01;65.67;44.32;76.98;;
18377;Laerm;9315;52.624;13.544;2024-03-06T04:40:30;68.10;46.37;77.97;;
18377;Laerm;9315;52.624;13.544;2024-03-06T04:42:58;69.21;48.91;79.10;;
18377;Laerm;9315;52.624;13.544;2024-03-06T04:45:26;67.59;45.95;77.56;;
18377;Laerm;9315;52.624;13.544;2024-03-06T04:47:54;68.75;48.64;79.38;;
18377;Laerm;9315;52.624;13.544;2024-03-06T04:50:22;64.66;45.89;74.84;;
18377;Laerm;9315;52.624;13.544;2024-03-06T04:52:50;68.29;48.57;78.29;;
18377;Laerm;9315;52.624;13.544;2024-03-06T04:55:18;67.19;46.59;77.48;;
18377;Laerm;9315;52.624;13.544;2024-03-06T04:57:51;68.99;47.40;78.47;;
18377;Laerm;9315;52.624;13.544;2024-03-06T05:00:19;69.20;51.43;78.91;;
18377;Laerm;9315;52.624;13.544;2024-03-06T05:02:46;68.84;46.76;76.85;;
18377;Laerm;9315;52.624;13.544;2024-03-06T05:05:29;69.46;48.67;82.14;;
18377;Laerm;9315;52.624;13.544;2024-03-06T05:08:10;68.64;49.80;78.61;;
18377;Laerm;9315;52.624;13.544;2024-03-06T05:10:51;68.20;46.27;78.12;;
18377;Laerm;9315;52.624;13.544;2024-03-06T05:13:34;70.94;49.27;84.80;;
18377;Laerm;9315;52.624;13.544;2024-03-06T05:16:14;67.28;45.69;79.55;;
18377;Laerm;9315;52.624;13.544;2024-03-06T05:18:55;68.82;49.26;83.26;;
18377;Laerm;9315;52.624;13.544;2024-03-06T05:21:37;69.45;48.37;78.20;;
18377;Laerm;9315;52.624;13.544;2024-03-06T05:24:18;68.46;47.60;76.97;;
18377;Laerm;9315;52.624;13.544;2024-03-06T05:26:59;68.94;47.31;79.87;;
18377;Laerm;9315;52.624;13.544;2024-03-06T05:29:40;69.21;49.50;76.84;;
18377;Laerm;9315;52.624;13.544;2024-03-06T05:32:21;70.62;49.19;78.19;;
18377;Laerm;9315;52.624;13.544;2024-03-06T05:35:02;69.66;47.34;78.48;;
18377;Laerm;9315;52.624;13.544;2024-03-06T05:37:43;70.20;47.93;79.91;;
18377;Laerm;9315;52.624;13.544;2024-03-06T05:40:24;68.01;46.85;77.23;;
18377;Laerm;9315;52.624;13.544;2024-03-06T05:43:05;70.20;49.15;77.96;;
18377;Laerm;9315;52.624;13.544;2024-03-06T05:45:46;69.56;50.88;77.89;;
18377;Laerm;9315;52.624;13.544;2024-03-06T05:48:27;68.22;47.92;77.67;;
18377;Laerm;9315;52.624;13.544;2024-03-06T05:51:08;69.26;50.39;83.09;;
18377;Laerm;9315;52.624;13.544;2024-03-06T05:53:50;70.41;49.39;80.16;;
18377;Laerm;9315;52.624;13.544;2024-03-06T05:56:31;69.49;49.54;78.74;;
18377;Laerm;9315;52.624;13.544;2024-03-06T05:59:12;69.90;51.31;84.34;;
18377;Laerm;9315;52.624;13.544;2024-03-06T06:01:40;69.93;51.03;77.35;;
18377;Laerm;9315;52.624;13.544;2024-03-06T06:04:09;69.75;52.22;78.04;;
18377;Laerm;9315;52.624;13.544;2024-03-06T06:06:37;69.36;49.40;80.06;;
18377;Laerm;9315;52.624;13.544;2024-03-06T06:09:04;69.42;50.09;79.26;;
18377;Laerm;9315;52.624;13.544;2024-03-06T06:11:34;70.65;49.87;76.90;;
18377;Laerm;9315;52.624;13.544;2024-03-06T06:14:02;71.60;49.90;80.24;;
18377;Laerm;9315;52.624;13.544;2024-03-06T06:16:38;69.46;49.23;86.01;;
18377;Laerm;9315;52.624;13.544;2024-03-06T06:19:08;70.91;51.78;78.13;;
18377;Laerm;9315;52.624;13.544;2024-03-06T06:21:36;70.90;51.67;77.16;;
18377;Laerm;9315;52.624;13.544;2024-03-06T06:24:05;70.58;51.42;79.07;;
18377;Laerm;9315;52.624;13.544;2024-03-06T06:26:33;69.69;50.99;77.89;;
18377;Laerm;9315;52.624;13.544;2024-03-06T06:29:00;70.27;48.90;79.13;;
18377;Laerm;9315;52.624;13.544;2024-03-06T06:31:28;69.71;48.11;77.84;;
18377;Laerm;9315;52.624;13.544;2024-03-06T06:33:56;70.66;53.14;79.91;;
18377;Laerm;9315;52.624;13.544;2024-03-06T06:36:24;69.08;48.66;78.38;;
18377;Laerm;9315;52.624;13.544;2024-03-06T06:38:53;69.81;48.37;79.11;;
18377;Laerm;9315;52.624;13.544;2024-03-06T06:41:21;67.90;48.90;76.15;;
18377;Laerm;9315;52.624;13.544;2024-03-06T06:43:50;71.22;51.57;79.94;;
18377;Laerm;9315;52.624;13.544;2024-03-06T06:46:19;68.85;49.72;77.78;;
18377;Laerm;9315;52.624;13.544;2024-03-06T06:48:48;68.40;45.71;78.72;;
18377;Laerm;9315;52.624;13.544;2024-03-06T06:51:16;71.20;46.90;81.08;;
18377;Laerm;9315;52.624;13.544;2024-03-06T06:53:43;68.72;47.46;77.27;;
18377;Laerm;9315;52.624;13.544;2024-03-06T06:56:11;70.93;49.35;81.06;;
18377;Laerm;9315;52.624;13.544;2024-03-06T06:58:39;70.55;50.70;78.55;;
18377;Laerm;9315;52.624;13.544;2024-03-06T07:01:10;71.84;47.85;86.42;;
18377;Laerm;9315;52.624;13.544;2024-03-06T07:03:37;68.15;49.15;76.77;;
18377;Laerm;9315;52.624;13.544;2024-03-06T07:06:05;68.31;47.65;79.00;;
18377;Laerm;9315;52.624;13.544;2024-03-06T07:08:33;69.53;50.36;78.80;;
18377;Laerm;9315;52.624;13.544;2024-03-06T07:11:01;70.20;47.95;79.01;;
18377;Laerm;9315;52.624;13.544;2024-03-06T07:13:29;69.28;46.62;83.06;;
18377;Laerm;9315;52.624;13.544;2024-03-06T07:15:56;68.92;47.81;77.83;;
18377;Laerm;9315;52.624;13.544;2024-03-06T07:18:24;70.73;50.73;80.89;;
18377;Laerm;9315;52.624;13.544;2024-03-06T07:20:51;70.04;50.05;77.50;;
18377;Laerm;9315;52.624;13.544;2024-03-06T07:23:20;67.42;47.97;77.81;;
18377;Laerm;9315;52.624;13.544;2024-03-06T07:25:47;71.44;47.32;84.13;;
18377;Laerm;9315;52.624;13.544;2024-03-06T07:28:15;68.89;48.03;75.35;;
18377;Laerm;9315;52.624;13.544;2024-03-06T07:30:43;68.60;47.42;78.58;;
18377;Laerm;9315;52.624;13.544;2024-03-06T07:33:11;70.17;48.21;81.71;;
18377;Laerm;9315;52.624;13.544;2024-03-06T07:35:40;70.48;48.42;78.73;;
18377;Laerm;9315;52.624;13.544;2024-03-06T07:38:10;69.26;49.43;80.28;;
18377;Laerm;9315;52.624;13.544;2024-03-06T07:40:38;68.54;45.25;76.12;;
18377;Laerm;9315;52.624;13.544;2024-03-06T07:43:05;68.77;44.07;77.11;;
18377;Laerm;9315;52.624;13.544;2024-03-06T07:45:34;68.95;43.55;78.28;;
18377;Laerm;9315;52.624;13.544;2024-03-06T07:48:02;69.00;43.14;80.99;;
18377;Laerm;9315;52.624;13.544;2024-03-06T07:50:30;69.29;44.44;80.21;;
18377;Laerm;9315;52.624;13.544;2024-03-06T07:52:57;66.11;41.88;75.81;;
18377;Laerm;9315;52.624;13.544;2024-03-06T07:55:25;69.56;45.36;79.45;;
18377;Laerm;9315;52.624;13.544;2024-03-06T07:57:52;69.55;45.89;78.74;;
18377;Laerm;9315;52.624;13.544;2024-03-06T08:00:20;68.03;44.40;77.18;;
18377;Laerm;9315;52.624;13.544;2024-03-06T08:02:47;69.18;47.57;80.59;;
18377;Laerm;9315;52.624;13.544;2024-03-06T08:05:18;67.27;39.45;77.62;;
18377;Laerm;9315;52.624;13.544;2024-03-06T08:07:46;69.47;44.98;77.99;;
18377;Laerm;9315;52.624;13.544;2024-03-06T08:10:14;67.97;40.72;80.16;;
18377;Laerm;9315;52.624;13.544;2024-03-06T08:12:43;68.78;43.84;80.13;;
18377;Laerm;9315;52.624;13.544;2024-03-06T08:15:12;68.54;47.72;78.50;;
18377;Laerm;9315;52.624;13.544;2024-03-06T08:17:43;69.32;51.59;79.24;;
18377;Laerm;9315;52.624;13.544;2024-03-06T08:20:12;68.37;46.44;76.77;;
18377;Laerm;9315;52.624;13.544;2024-03-06T08:22:42;67.99;39.61;79.76;;
18377;Laerm;9315;52.624;13.544;2024-03-06T08:25:12;68.71;45.76;78.12;;
18377;Laerm;9315;52.624;13.544;2024-03-06T08:27:41;69.82;46.46;78.83;;
18377;Laerm;9315;52.624;13.544;2024-03-06T08:30:10;70.53;43.95;83.74;;
18377;Laerm;9315;52.624;13.544;2024-03-06T08:32:38;83.80;41.83;105.24;;
18377;Laerm;9315;52.624;13.544;2024-03-06T08:35:12;72.36;51.81;86.15;;
18377;Laerm;9315;52.624;13.544;2024-03-06T08:37:44;68.73;50.12;81.18;;
18377;Laerm;9315;52.624;13.544;2024-03-06T08:40:12;69.40;41.96;82.14;;
18377;Laerm;9315;52.624;13.544;2024-03-06T08:42:51;68.46;42.97;78.17;;
18377;Laerm;9315;52.624;13.544;2024-03-06T08:45:21;72.75;46.53;87.87;;
18377;Laerm;9315;52.624;13.544;2024-03-06T08:47:49;71.22;41.60;84.44;;
18377;Laerm;9315;52.624;13.544;2024-03-06T08:50:17;69.95;46.76;80.05;;
18377;Laerm;9315;52.624;13.544;2024-03-06T08:52:46;70.15;47.95;78.37;;
18377;Laerm;9315;52.624;13.544;2024-03-06T08:55:14;69.60;46.18;82.41;;
18377;Laerm;9315;52.624;13.544;2024-03-06T08:57:41;69.22;43.41;81.07;;
18377;Laerm;9315;52.624;13.544;2024-03-06T09:00:10;67.10;42.48;76.56;;
18377;Laerm;9315;52.624;13.544;2024-03-06T09:02:40;68.54;42.65;77.08;;
18377;Laerm;9315;52.624;13.544;2024-03-06T09:05:10;69.13;44.64;80.95;;
18377;Laerm;9315;52.624;13.544;2024-03-06T09:07:40;68.90;46.35;76.55;;
18377;Laerm;9315;52.624;13.544;2024-03-06T09:10:12;69.20;45.63;80.27;;
18377;Laerm;9315;52.624;13.544;2024-03-06T09:12:40;66.97;43.85;78.18;;
18377;Laerm;9315;52.624;13.544;2024-03-06T09:15:09;69.58;49.61;78.86;;
18377;Laerm;9315;52.624;13.544;2024-03-06T09:17:38;68.67;49.23;80.27;;
18377;Laerm;9315;52.624;13.544;2024-03-06T09:20:06;68.16;45.80;75.62;;
18377;Laerm;9315;52.624;13.544;2024-03-06T09:22:41;68.96;47.14;77.48;;
18377;Laerm;9315;52.624;13.544;2024-03-06T09:25:11;69.21;43.60;79.25;;
18377;Laerm;9315;52.624;13.544;2024-03-06T09:27:43;69.33;47.39;81.82;;
18377;Laerm;9315;52.624;13.544;2024-03-06T09:30:12;69.40;44.47;82.24;;
18377;Laerm;9315;52.624;13.544;2024-03-06T09:32:41;68.78;45.15;76.99;;
18377;Laerm;9315;52.624;13.544;2024-03-06T09:35:09;66.52;38.90;79.87;;
18377;Laerm;9315;52.624;13.544;2024-03-06T09:37:37;68.06;40.66;75.36;;
18377;Laerm;9315;52.624;13.544;2024-03-06T09:40:05;67.14;43.96;75.78;;
18377;Laerm;9315;52.624;13.544;2024-03-06T09:42:35;66.71;43.27;77.27;;
18377;Laerm;9315;52.624;13.544;2024-03-06T09:45:03;69.85;45.14;77.69;;
18377;Laerm;9315;52.624;13.544;2024-03-06T09:47:32;71.41;54.33;84.93;;
18377;Laerm;9315;52.624;13.544;2024-03-06T09:50:03;68.30;47.86;76.81;;
18377;Laerm;9315;52.624;13.544;2024-03-06T09:52:37;65.72;41.83;74.86;;
18377;Laerm;9315;52.624;13.544;2024-03-06T09:55:06;67.58;44.61;76.91;;
18377;Laerm;9315;52.624;13.544;2024-03-06T09:57:37;69.93;47.79;80.65;;
18377;Laerm;9315;52.624;13.544;2024-03-06T10:00:07;67.44;40.95;76.29;;
18377;Laerm;9315;52.624;13.544;2024-03-06T10:02:41;68.40;45.31;78.38;;
18377;Laerm;9315;52.624;13.544;2024-03-06T10:05:23;69.22;45.63;79.45;;
18377;Laerm;9315;52.624;13.544;2024-03-06T10:07:52;68.88;41.91;80.58;;
18377;Laerm;9315;52.624;13.544;2024-03-06T10:10:21;68.03;41.42;77.26;;
18377;Laerm;9315;52.624;13.544;2024-03-06T10:12:51;68.80;45.49;80.40;;
18377;Laerm;9315;52.624;13.544;2024-03-06T10:15:19;67.83;45.12;77.17;;
18377;Laerm;9315;52.624;13.544;2024-03-06T10:17:49;68.58;42.71;76.75;;
18377;Laerm;9315;52.624;13.544;2024-03-06T10:20:23;66.49;39.25;78.64;;
18377;Laerm;9315;52.624;13.544;2024-03-06T10:22:53;68.63;39.24;77.19;;
18377;Laerm;9315;52.624;13.544;2024-03-06T10:25:25;67.76;40.37;79.53;;
18377;Laerm;9315;52.624;13.544;2024-03-06T10:28:09;69.83;44.51;79.10;;
18377;Laerm;9315;52.624;13.544;2024-03-06T10:30:41;68.61;45.65;77.98;;
18377;Laerm;9315;52.624;13.544;2024-03-06T10:33:14;68.90;43.34;80.04;;
18377;Laerm;9315;52.624;13.544;2024-03-06T10:35:45;69.66;42.71;80.19;;
18377;Laerm;9315;52.624;13.544;2024-03-06T10:38:14;70.27;46.76;79.64;;
18377;Laerm;9315;52.624;13.544;2024-03-06T10:40:43;67.09;41.40;77.56;;
18377;Laerm;9315;52.624;13.544;2024-03-06T10:43:12;70.02;43.00;78.72;;
18377;Laerm;9315;52.624;13.544;2024-03-06T10:46:00;70.33;47.36;81.21;;
18377;Laerm;9315;52.624;13.544;2024-03-06T10:48:28;67.97;45.67;78.27;;
18377;Laerm;9315;52.624;13.544;2024-03-06T10:50:58;67.71;47.04;75.89;;
18377;Laerm;9315;52.624;13.544;2024-03-06T10:53:28;69.35;47.29;76.96;;
18377;Laerm;9315;52.624;13.544;2024-03-06T10:55:57;67.15;45.68;77.65;;
18377;Laerm;9315;52.624;13.544;2024-03-06T10:58:26;67.88;47.12;79.60;;
18377;Laerm;9315;52.624;13.544;2024-03-06T11:00:55;68.05;49.20;85.44;;
18377;Laerm;9315;52.624;13.544;2024-03-06T11:03:25;69.54;50.19;78.13;;
18377;Laerm;9315;52.624;13.544;2024-03-06T11:05:53;69.61;49.31;76.83;;
18377;Laerm;9315;52.624;13.544;2024-03-06T11:08:21;67.51;39.18;77.82;;
18377;Laerm;9315;52.624;13.544;2024-03-06T11:10:49;67.63;46.94;75.87;;
18377;Laerm;9315;52.624;13.544;2024-03-06T11:15:52;69.59;38.35;78.78;;
18377;Laerm;9315;52.624;13.544;2024-03-06T11:23:32;68.72;41.63;79.79;;
18377;Laerm;9315;52.624;13.544;2024-03-06T11:26:05;69.25;42.23;80.14;;
18377;Laerm;9315;52.624;13.544;2024-03-06T11:28:38;68.39;40.33;80.31;;
18377;Laerm;9315;52.624;13.544;2024-03-06T11:31:10;68.96;44.47;77.24;;
18377;Laerm;9315;52.624;13.544;2024-03-06T11:33:46;69.91;46.73;76.96;;
18377;Laerm;9315;52.624;13.544;2024-03-06T11:36:21;67.98;49.28;74.90;;
18377;Laerm;9315;52.624;13.544;2024-03-06T11:38:59;67.98;38.09;76.61;;
18377;Laerm;9315;52.624;13.544;2024-03-06T11:44:18;67.57;43.34;76.60;;
18377;Laerm;9315;52.624;13.544;2024-03-06T11:47:05;68.65;42.51;79.77;;
18377;Laerm;9315;52.624;13.544;2024-03-06T11:49:36;67.12;43.68;76.90;;
18377;Laerm;9315;52.624;13.544;2024-03-06T11:52:08;68.34;51.14;75.79;;
18377;Laerm;9315;52.624;13.544;2024-03-06T11:54:37;68.80;44.95;81.21;;
18377;Laerm;9315;52.624;13.544;2024-03-06T11:57:05;69.40;47.35;79.37;;
18377;Laerm;9315;52.624;13.544;2024-03-06T11:59:36;68.50;46.93;81.85;;
18377;Laerm;9315;52.624;13.544;2024-03-06T12:02:07;69.02;47.93;77.58;;
18377;Laerm;9315;52.624;13.544;2024-03-06T12:04:36;69.29;43.13;82.05;;
18377;Laerm;9315;52.624;13.544;2024-03-06T12:07:07;69.74;46.88;83.40;;
18377;Laerm;9315;52.624;13.544;2024-03-06T12:09:38;69.86;44.36;83.53;;
18377;Laerm;9315;52.624;13.544;2024-03-06T12:12:10;67.97;44.40;77.95;;
18377;Laerm;9315;52.624;13.544;2024-03-06T12:14:39;67.84;41.77;77.45;;
18377;Laerm;9315;52.624;13.544;2024-03-06T12:17:13;77.21;46.00;96.43;;
18377;Laerm;9315;52.624;13.544;2024-03-06T12:19:44;68.90;47.71;80.98;;
18377;Laerm;9315;52.624;13.544;2024-03-06T12:22:15;68.96;47.22;78.01;;
18377;Laerm;9315;52.624;13.544;2024-03-06T12:24:43;69.65;43.04;80.58;;
18377;Laerm;9315;52.624;13.544;2024-03-06T12:27:10;68.12;40.84;77.12;;
18377;Laerm;9315;52.624;13.544;2024-03-06T12:29:40;68.56;38.97;79.04;;
18377;Laerm;9315;52.624;13.544;2024-03-06T12:32:19;68.47;41.20;79.01;;
18377;Laerm;9315;52.624;13.544;2024-03-06T12:34:58;69.54;40.07;76.85;;
18377;Laerm;9315;52.624;13.544;2024-03-06T12:37:35;68.41;40.00;77.76;;
18377;Laerm;9315;52.624;13.544;2024-03-06T12:40:05;69.31;45.66;77.41;;
18377;Laerm;9315;52.624;13.544;2024-03-06T12:42:33;67.06;39.88;77.27;;
18377;Laerm;9315;52.624;13.544;2024-03-06T12:45:00;68.63;45.73;77.40;;
18377;Laerm;9315;52.624;13.544;2024-03-06T12:47:30;69.80;45.35;80.92;;
18377;Laerm;9315;52.624;13.544;2024-03-06T12:49:58;69.59;50.80;79.16;;
18377;Laerm;9315;52.624;13.544;2024-03-06T12:52:28;69.07;42.73;79.54;;
18377;Laerm;9315;52.624;13.544;2024-03-06T12:54:56;68.74;42.21;76.72;;
18377;Laerm;9315;52.624;13.544;2024-03-06T12:57:24;69.23;44.96;82.07;;
18377;Laerm;9315;52.624;13.544;2024-03-06T12:59:51;68.82;45.19;78.63;;
18377;Laerm;9315;52.624;13.544;2024-03-06T13:02:19;67.43;37.63;77.07;;
18377;Laerm;9315;52.624;13.544;2024-03-06T13:04:47;68.45;42.59;79.14;;
18377;Laerm;9315;52.624;13.544;2024-03-06T13:07:14;68.04;44.33;77.99;;
18377;Laerm;9315;52.624;13.544;2024-03-06T13:09:42;70.69;47.03;85.49;;
18377;Laerm;9315;52.624;13.544;2024-03-06T13:12:10;69.22;43.14;77.58;;
18377;Laerm;9315;52.624;13.544;2024-03-06T13:14:38;68.25;43.52;75.56;;
18377;Laerm;9315;52.624;13.544;2024-03-06T13:17:05;69.88;46.85;79.16;;
18377;Laerm;9315;52.624;13.544;2024-03-06T13:19:33;68.47;48.28;77.03;;
18377;Laerm;9315;52.624;13.544;2024-03-06T13:22:00;68.02;40.54;77.11;;
18377;Laerm;9315;52.624;13.544;2024-03-06T13:24:32;67.29;44.80;77.53;;
18377;Laerm;9315;52.624;13.544;2024-03-06T13:27:01;69.35;44.92;78.68;;
18377;Laerm;9315;52.624;13.544;2024-03-06T13:29:28;69.61;44.07;78.53;;
18377;Laerm;9315;52.624;13.544;2024-03-06T13:31:56;69.08;42.63;77.67;;
18377;Laerm;9315;52.624;13.544;2024-03-06T13:34:23;69.13;47.16;76.93;;
18377;Laerm;9315;52.624;13.544;2024-03-06T13:36:51;69.06;43.88;81.48;;
18377;Laerm;9315;52.624;13.544;2024-03-06T13:39:18;69.51;50.12;78.95;;
18377;Laerm;9315;52.624;13.544;2024-03-06T13:41:46;69.71;46.26;78.89;;
18377;Laerm;9315;52.624;13.544;2024-03-06T13:44:13;68.97;46.00;80.56;;
18377;Laerm;9315;52.624;13.544;2024-03-06T13:46:41;69.08;46.62;76.14;;
18377;Laerm;9315;52.624;13.544;2024-03-06T13:49:38;67.91;43.63;76.75;;
18377;Laerm;9315;52.624;13.544;2024-03-06T13:52:09;70.59;47.79;81.88;;
18377;Laerm;9315;52.624;13.544;2024-03-06T13:54:42;69.15;46.15;76.47;;
18377;Laerm;9315;52.624;13.544;2024-03-06T13:57:10;68.73;46.54;76.62;;
18377;Laerm;9315;52.624;13.544;2024-03-06T13:59:38;70.71;53.63;77.26;;
18377;Laerm;9315;52.624;13.544;2024-03-06T14:02:07;68.60;45.64;76.78;;
18377;Laerm;9315;52.624;13.544;2024-03-06T14:04:35;68.85;41.45;77.37;;
18377;Laerm;9315;52.624;13.544;2024-03-06T14:07:03;70.77;51.58;84.08;;
18377;Laerm;9315;52.624;13.544;2024-03-06T14:09:30;69.16;46.45;78.39;;